Time;durP1;ratioP1;P1;durP2;ratioP2;P2;SDS_P1;SDS_P2;PMS_P1;PMS_P2;Temp;Humidity;BMP_temperature;BMP_pressure;BME280_temperature;BME280_humidity;BME280_pressure;Samples;Min_cycle;Max_cycle;Signal;HPM_P1;HPM_P2
2024/01/02 00:02:05;;;;;;;1.92;1.20;;;9.60;82.50;;;;;;5024586;28;20524;-81
2024/01/02 00:04:31;;;;;;;2.20;1.50;;;9.60;82.60;;;;;;5041836;28;20100;-82
2024/01/02 00:06:56;;;;;;;2.30;1.60;;;9.60;82.60;;;;;;5032752;28;20139;-81
2024/01/02 00:09:22;;;;;;;1.45;1.35;;;9.60;82.50;;;;;;5034006;28;20036;-81
2024/01/02 00:11:48;;;;;;;2.53;1.48;;;9.60;82.50;;;;;;5031753;28;20037;-81
2024/01/02 00:14:14;;;;;;;2.72;1.40;;;9.60;82.50;;;;;;4991170;28;20033;-81
2024/01/02 00:16:39;;;;;;;1.80;1.40;;;9.60;82.50;;;;;;5020096;28;20032;-80
2024/01/02 00:19:05;;;;;;;2.15;1.60;;;9.60;82.50;;;;;;5031798;28;20029;-81
2024/01/02 00:21:31;;;;;;;2.22;1.40;;;9.60;82.60;;;;;;5024687;28;20108;-81
2024/01/02 00:23:58;;;;;;;3.47;1.48;;;9.60;82.60;;;;;;5011856;28;20029;-80
2024/01/02 00:26:24;;;;;;;2.50;1.55;;;9.60;82.60;;;;;;5044906;28;20580;-82
2024/01/02 00:28:53;;;;;;;1.88;1.20;;;9.60;82.60;;;;;;5026231;28;20037;-81
2024/01/02 00:31:19;;;;;;;1.30;1.20;;;9.60;82.60;;;;;;5032950;28;20045;-80
2024/01/02 00:33:45;;;;;;;2.30;1.55;;;9.60;82.60;;;;;;5018750;28;20040;-81
2024/01/02 00:36:11;;;;;;;2.08;1.30;;;9.60;82.60;;;;;;4994117;28;20040;-81
2024/01/02 00:38:38;;;;;;;1.92;1.35;;;9.60;82.60;;;;;;5017993;28;20036;-81
2024/01/02 00:41:04;;;;;;;2.42;1.50;;;9.60;82.50;;;;;;5030259;28;20511;-79
2024/01/02 00:43:30;;;;;;;2.75;1.42;;;9.70;82.60;;;;;;5014492;28;20051;-82
2024/01/02 00:45:57;;;;;;;2.25;1.73;;;9.60;82.50;;;;;;5036276;28;20037;-82
2024/01/02 00:48:23;;;;;;;2.63;1.60;;;9.60;82.50;;;;;;5025232;28;20133;-81
2024/01/02 00:50:49;;;;;;;2.15;1.30;;;9.70;82.50;;;;;;5011203;28;20132;-81
2024/01/02 00:53:14;;;;;;;2.63;1.55;;;9.70;82.60;;;;;;5015457;28;20033;-81
2024/01/02 00:55:40;;;;;;;4.22;1.80;;;9.70;82.60;;;;;;5030663;28;20106;-81
2024/01/02 00:58:06;;;;;;;3.88;1.38;;;9.70;83.20;;;;;;5034057;28;20048;-81
2024/01/02 01:00:32;;;;;;;2.15;1.65;;;9.70;82.50;;;;;;5038804;28;20036;-82
2024/01/02 01:02:58;;;;;;;3.85;1.55;;;9.70;82.50;;;;;;5019682;28;20075;-82
2024/01/02 01:05:25;;;;;;;2.38;1.40;;;9.70;82.50;;;;;;4995504;28;20033;-82
2024/01/02 01:07:51;;;;;;;2.97;1.60;;;9.70;82.50;;;;;;5014677;28;20030;-87
2024/01/02 01:10:17;;;;;;;2.88;1.52;;;9.70;82.50;;;;;;5029006;28;20140;-83
2024/01/02 01:12:45;;;;;;;3.92;1.48;;;9.80;82.60;;;;;;5013905;28;20160;-81
2024/01/02 01:15:11;;;;;;;2.53;1.60;;;9.70;82.50;;;;;;5030521;28;20029;-81
2024/01/02 01:17:38;;;;;;;2.13;1.27;;;9.70;82.50;;;;;;5031733;28;20065;-82
2024/01/02 01:20:04;;;;;;;2.75;1.40;;;9.80;82.60;;;;;;4994514;28;20035;-81
2024/01/02 01:22:30;;;;;;;2.25;1.55;;;9.80;82.60;;;;;;5031693;28;20111;-81
2024/01/02 01:24:56;;;;;;;2.17;1.48;;;9.80;82.60;;;;;;5009974;28;20053;-82
2024/01/02 01:27:21;;;;;;;2.78;1.40;;;9.80;82.60;;;;;;5031791;28;20101;-84
2024/01/02 01:29:47;;;;;;;2.55;1.55;;;9.80;82.60;;;;;;5037358;28;20430;-82
2024/01/02 01:32:13;;;;;;;2.15;1.30;;;9.80;82.50;;;;;;5024712;28;20033;-82
2024/01/02 01:34:39;;;;;;;1.52;1.35;;;9.80;82.50;;;;;;5042597;28;20422;-82
2024/01/02 01:37:05;;;;;;;1.67;1.13;;;9.80;83.20;;;;;;5013943;28;20025;-83
2024/01/02 01:39:31;;;;;;;2.13;1.40;;;9.80;82.50;;;;;;5028823;28;20033;-82
2024/01/02 01:41:57;;;;;;;2.60;1.35;;;9.80;82.50;;;;;;5024125;28;20029;-84
2024/01/02 01:44:22;;;;;;;2.00;1.33;;;9.80;82.60;;;;;;5052464;28;20025;-83
2024/01/02 01:46:49;;;;;;;1.25;1.02;;;9.80;82.50;;;;;;5017764;28;20045;-82
2024/01/02 01:49:15;;;;;;;2.72;1.40;;;9.80;82.60;;;;;;5021983;28;20029;-83
2024/01/02 01:51:43;;;;;;;1.98;1.10;;;9.80;82.60;;;;;;5030354;28;20067;-83
2024/01/02 01:54:13;;;;;;;1.90;1.30;;;9.80;82.50;;;;;;5024158;28;20459;-83
2024/01/02 01:56:41;;;;;;;3.60;1.27;;;9.90;82.60;;;;;;5025995;28;20034;-83
2024/01/02 01:59:09;;;;;;;2.00;1.20;;;9.80;82.50;;;;;;5031403;28;20056;-83
2024/01/02 02:01:39;;;;;;;1.38;1.27;;;9.80;82.50;;;;;;5020270;28;20122;-83
2024/01/02 02:04:05;;;;;;;2.28;1.45;;;9.80;82.60;;;;;;5031176;28;20120;-84
2024/01/02 02:06:31;;;;;;;3.22;1.27;;;9.80;82.50;;;;;;5011788;28;20060;-82
2024/01/02 02:08:57;;;;;;;1.35;1.20;;;9.80;82.50;;;;;;5029977;28;20052;-82
2024/01/02 02:11:23;;;;;;;1.85;1.15;;;9.80;82.50;;;;;;5029226;28;20101;-82
2024/01/02 02:13:50;;;;;;;2.20;1.38;;;9.80;82.50;;;;;;5040631;28;20029;-83
2024/01/02 02:16:17;;;;;;;1.88;1.33;;;9.80;82.50;;;;;;5031497;28;20477;-83
2024/01/02 02:18:42;;;;;;;1.35;1.10;;;9.80;82.50;;;;;;5027849;28;20036;-82
2024/01/02 02:21:08;;;;;;;1.67;1.20;;;9.80;82.60;;;;;;5013588;28;20410;-82
2024/01/02 02:23:34;;;;;;;2.33;1.27;;;9.80;82.60;;;;;;5031460;28;20358;-82
2024/01/02 02:26:00;;;;;;;1.65;1.20;;;9.90;82.60;;;;;;5030010;28;20509;-80
2024/01/02 02:28:26;;;;;;;1.30;1.20;;;9.80;82.60;;;;;;5020335;28;20458;-78
2024/01/02 02:30:51;;;;;;;1.10;1.00;;;9.90;82.60;;;;;;5036834;28;20037;-79
2024/01/02 02:33:18;;;;;;;3.10;1.23;;;9.90;82.60;;;;;;5020383;28;20075;-79
2024/01/02 02:35:44;;;;;;;2.10;1.20;;;9.90;82.60;;;;;;5053288;28;20067;-79
2024/01/02 02:38:09;;;;;;;1.65;1.00;;;9.90;82.50;;;;;;5020409;28;20434;-78
2024/01/02 02:40:37;;;;;;;2.17;1.20;;;9.90;82.50;;;;;;5054461;28;20035;-79
2024/01/02 02:43:03;;;;;;;1.52;1.20;;;9.90;82.60;;;;;;5053809;28;20057;-79
2024/01/02 02:45:29;;;;;;;1.23;1.13;;;9.90;82.50;;;;;;5020301;28;20430;-79
2024/01/02 02:47:54;;;;;;;1.20;1.10;;;9.90;82.50;;;;;;5035829;28;20484;-79
2024/01/02 02:50:20;;;;;;;1.35;1.20;;;9.90;82.60;;;;;;5020652;28;20072;-79
2024/01/02 02:52:46;;;;;;;1.10;1.00;;;9.90;83.20;;;;;;5036356;28;20461;-79
2024/01/02 02:55:11;;;;;;;1.05;1.00;;;9.90;82.60;;;;;;5020811;28;20039;-79
2024/01/02 02:57:37;;;;;;;1.10;1.00;;;9.90;82.60;;;;;;5036445;28;20029;-79
2024/01/02 03:00:04;;;;;;;1.23;1.13;;;9.90;82.60;;;;;;5036504;28;20029;-80
2024/01/02 03:02:30;;;;;;;1.35;1.00;;;9.90;82.60;;;;;;5036223;28;20033;-80
2024/01/02 03:04:56;;;;;;;1.20;1.10;;;9.90;82.60;;;;;;5036761;28;20094;-79
2024/01/02 03:07:21;;;;;;;1.02;1.02;;;9.90;82.60;;;;;;5036112;28;20093;-79
2024/01/02 03:09:47;;;;;;;0.90;0.90;;;9.90;82.60;;;;;;5019826;28;20033;-79
2024/01/02 03:12:13;;;;;;;1.20;1.10;;;9.90;82.60;;;;;;5019963;28;20037;-80
2024/01/02 03:14:39;;;;;;;1.40;1.10;;;9.90;82.60;;;;;;5035917;28;20424;-80
2024/01/02 03:17:05;;;;;;;1.15;1.05;;;9.90;82.60;;;;;;5035985;28;20056;-79
2024/01/02 03:19:31;;;;;;;1.30;1.00;;;10.00;82.60;;;;;;5035851;28;20482;-80
2024/01/02 03:21:57;;;;;;;1.00;1.00;;;9.90;82.60;;;;;;5035763;28;20119;-80
2024/01/02 03:24:22;;;;;;;1.08;0.95;;;10.00;82.60;;;;;;5035885;28;20125;-80
2024/01/02 03:26:48;;;;;;;1.05;1.00;;;10.00;82.60;;;;;;5036634;28;20383;-79
2024/01/02 03:29:16;;;;;;;1.00;1.00;;;10.00;82.50;;;;;;5035623;28;20032;-79
2024/01/02 03:31:43;;;;;;;1.15;0.90;;;10.00;82.60;;;;;;5019372;28;20543;-79
2024/01/02 03:34:09;;;;;;;1.15;1.00;;;10.00;82.60;;;;;;5035655;28;20029;-80
2024/01/02 03:36:34;;;;;;;1.05;1.05;;;10.00;82.60;;;;;;5035770;28;20481;-79
2024/01/02 03:39:02;;;;;;;0.90;0.90;;;10.00;82.60;;;;;;5035524;28;20538;-80
2024/01/02 03:41:28;;;;;;;0.93;0.93;;;10.00;82.60;;;;;;5035674;28;20036;-79
2024/01/02 03:43:53;;;;;;;0.80;0.80;;;10.00;82.60;;;;;;5035588;28;20033;-80
2024/01/02 03:46:19;;;;;;;0.85;0.85;;;10.00;82.60;;;;;;5052988;28;20029;-80
2024/01/02 03:48:45;;;;;;;1.30;1.10;;;10.00;82.60;;;;;;5035551;28;20483;-78
2024/01/02 03:51:11;;;;;;;0.70;0.70;;;10.00;82.60;;;;;;5019140;28;20049;-79
2024/01/02 03:53:37;;;;;;;0.90;0.90;;;10.00;82.60;;;;;;5051906;28;20171;-81
2024/01/02 03:56:04;;;;;;;0.88;0.88;;;10.00;82.50;;;;;;5035291;28;20043;-81
2024/01/02 03:58:30;;;;;;;0.90;0.90;;;10.00;82.60;;;;;;5035557;28;20388;-80
2024/01/02 04:00:56;;;;;;;0.80;0.80;;;10.00;82.60;;;;;;5039559;28;20044;-80
2024/01/02 04:03:22;;;;;;;0.95;0.95;;;10.10;82.60;;;;;;5055998;28;20021;-79
2024/01/02 04:05:48;;;;;;;0.90;0.90;;;10.00;82.60;;;;;;5039486;28;20036;-79
2024/01/02 04:08:14;;;;;;;1.00;0.90;;;10.00;82.60;;;;;;5039709;28;20034;-79
2024/01/02 04:10:40;;;;;;;0.90;0.90;;;10.10;82.60;;;;;;5057114;28;20454;-80
2024/01/02 04:13:06;;;;;;;0.80;0.80;;;10.10;82.60;;;;;;5023675;28;20033;-79
2024/01/02 04:15:32;;;;;;;0.73;0.73;;;10.10;82.60;;;;;;5039446;28;20099;-79
2024/01/02 04:17:57;;;;;;;1.38;0.80;;;10.10;82.60;;;;;;5055642;28;20028;-79
2024/01/02 04:20:23;;;;;;;0.82;0.82;;;10.10;82.60;;;;;;5039250;28;20041;-79
2024/01/02 04:22:54;;;;;;;0.90;0.90;;;10.10;82.60;;;;;;5055753;28;20032;-79
2024/01/02 04:25:21;;;;;;;0.88;0.88;;;10.10;82.60;;;;;;5039299;28;20477;-80
2024/01/02 04:27:47;;;;;;;0.85;0.85;;;10.10;82.60;;;;;;5055781;28;20458;-81
2024/01/02 04:30:13;;;;;;;0.88;0.88;;;10.10;82.50;;;;;;5039132;28;20029;-80
2024/01/02 04:32:39;;;;;;;0.90;0.90;;;10.10;82.60;;;;;;5023182;28;20036;-79
2024/01/02 04:35:05;;;;;;;1.48;0.82;;;10.10;82.60;;;;;;5022368;28;20496;-79
2024/01/02 04:37:30;;;;;;;0.80;0.80;;;10.10;82.60;;;;;;5055155;28;20036;-78
2024/01/02 04:39:56;;;;;;;0.90;0.90;;;10.10;82.60;;;;;;5039085;28;20041;-79
2024/01/02 04:42:22;;;;;;;0.90;0.90;;;10.10;82.60;;;;;;5038805;28;20389;-78
2024/01/02 04:44:48;;;;;;;0.80;0.80;;;10.10;82.60;;;;;;5023035;28;20120;-79
2024/01/02 04:47:14;;;;;;;0.80;0.80;;;10.10;82.60;;;;;;5038837;28;20183;-79
2024/01/02 04:49:39;;;;;;;0.82;0.82;;;10.10;82.60;;;;;;5038516;28;20033;-80
2024/01/02 04:52:05;;;;;;;0.90;0.90;;;10.10;82.60;;;;;;5038861;28;20041;-80
2024/01/02 04:54:31;;;;;;;0.95;0.90;;;10.20;82.60;;;;;;5038810;28;20102;-79
2024/01/02 04:56:57;;;;;;;0.80;0.80;;;10.20;82.60;;;;;;5056953;28;20466;-80
2024/01/02 04:59:23;;;;;;;0.80;0.80;;;10.20;82.60;;;;;;5021862;28;20103;-79
2024/01/02 05:01:50;;;;;;;0.77;0.77;;;10.20;82.60;;;;;;5021856;28;20367;-79
2024/01/02 05:04:16;;;;;;;0.70;0.70;;;10.20;82.60;;;;;;5055031;28;20502;-80
2024/01/02 05:06:41;;;;;;;0.80;0.80;;;10.20;82.50;;;;;;5021520;28;20033;-80
2024/01/02 05:09:08;;;;;;;0.70;0.70;;;10.20;82.50;;;;;;5038511;28;20033;-79
2024/01/02 05:11:38;;;;;;;0.98;0.98;;;10.20;82.50;;;;;;5037282;28;20087;-80
2024/01/02 05:14:04;;;;;;;1.45;0.90;;;10.20;82.60;;;;;;5054409;28;20036;-79
2024/01/02 05:16:30;;;;;;;1.30;0.80;;;10.20;82.50;;;;;;5021700;28;20037;-79
2024/01/02 05:18:56;;;;;;;0.80;0.80;;;10.20;82.60;;;;;;5021527;28;20025;-78
2024/01/02 05:21:21;;;;;;;0.70;0.70;;;10.20;82.60;;;;;;5021378;28;20367;-79
2024/01/02 05:23:47;;;;;;;1.10;1.10;;;10.20;82.60;;;;;;5054291;28;20397;-80
2024/01/02 05:26:13;;;;;;;0.80;0.80;;;10.30;82.60;;;;;;5037978;28;20021;-80
2024/01/02 05:28:39;;;;;;;0.77;0.77;;;10.20;82.50;;;;;;5054545;28;20040;-80
2024/01/02 05:31:04;;;;;;;0.90;0.90;;;10.30;82.50;;;;;;5037777;28;20087;-80
2024/01/02 05:33:30;;;;;;;0.80;0.80;;;10.30;82.50;;;;;;5021739;28;20414;-81
2024/01/02 05:35:56;;;;;;;0.90;0.90;;;10.30;82.50;;;;;;5038744;28;20031;-79
2024/01/02 05:38:23;;;;;;;0.93;0.90;;;10.30;82.50;;;;;;5022046;28;20024;-79
2024/01/02 05:40:48;;;;;;;0.73;0.73;;;10.30;82.50;;;;;;5038103;28;20037;-79
2024/01/02 05:43:14;;;;;;;0.80;0.80;;;10.30;82.50;;;;;;5022357;28;20025;-81
2024/01/02 05:45:40;;;;;;;0.80;0.80;;;10.30;82.50;;;;;;5038326;28;20120;-79
2024/01/02 05:48:07;;;;;;;0.80;0.80;;;10.30;82.50;;;;;;5054700;28;20033;-80
2024/01/02 05:50:32;;;;;;;0.90;0.90;;;10.30;82.50;;;;;;5038260;28;20409;-80
2024/01/02 05:52:58;;;;;;;0.90;0.90;;;10.40;82.50;;;;;;5054613;28;20037;-80
2024/01/02 05:55:24;;;;;;;0.90;0.90;;;10.40;82.50;;;;;;5038445;28;20037;-79
2024/01/02 05:57:50;;;;;;;0.85;0.85;;;10.40;82.50;;;;;;5037466;28;20530;-78
2024/01/02 06:00:16;;;;;;;0.80;0.80;;;10.40;82.50;;;;;;5054201;28;20063;-79
2024/01/02 06:02:42;;;;;;;0.80;0.80;;;10.40;82.40;;;;;;5038487;28;20029;-80
2024/01/02 06:05:08;;;;;;;0.90;0.90;;;10.40;82.50;;;;;;5022077;28;20029;-80
2024/01/02 06:07:34;;;;;;;0.70;0.70;;;10.40;82.40;;;;;;5037828;28;20171;-79
2024/01/02 06:10:00;;;;;;;0.85;0.85;;;10.40;82.40;;;;;;5054019;28;20116;-80
2024/01/02 06:12:26;;;;;;;0.90;0.90;;;10.40;82.40;;;;;;5053916;28;20035;-79
2024/01/02 06:14:51;;;;;;;0.80;0.80;;;10.40;82.40;;;;;;5037007;28;20033;-79
2024/01/02 06:17:17;;;;;;;1.00;1.00;;;10.50;82.40;;;;;;5053725;28;20458;-79
2024/01/02 06:19:43;;;;;;;0.90;0.90;;;10.50;82.40;;;;;;5037407;28;20029;-80
2024/01/02 06:22:09;;;;;;;0.93;0.93;;;10.50;82.30;;;;;;5053059;28;20037;-77
2024/01/02 06:24:35;;;;;;;1.02;0.95;;;10.50;82.30;;;;;;5054603;28;20025;-79
2024/01/02 06:27:00;;;;;;;0.90;0.90;;;10.50;82.90;;;;;;5054798;28;20033;-79
2024/01/02 06:29:26;;;;;;;0.80;0.80;;;10.50;82.30;;;;;;5053385;28;20209;-80
2024/01/02 06:31:52;;;;;;;0.90;0.90;;;10.50;82.30;;;;;;5036906;28;20072;-79
2024/01/02 06:34:17;;;;;;;0.90;0.90;;;10.60;82.30;;;;;;5036852;28;20037;-79
2024/01/02 06:36:43;;;;;;;0.90;0.90;;;10.60;82.30;;;;;;5020109;28;20064;-79
2024/01/02 06:39:09;;;;;;;0.90;0.90;;;10.60;82.30;;;;;;5053156;28;20033;-79
2024/01/02 06:41:35;;;;;;;0.90;0.90;;;10.60;82.30;;;;;;5036739;28;20036;-80
2024/01/02 06:44:00;;;;;;;0.90;0.90;;;10.60;82.30;;;;;;5037183;28;20025;-79
2024/01/02 06:46:26;;;;;;;0.63;0.63;;;10.60;82.30;;;;;;5036586;28;20052;-79
2024/01/02 06:48:52;;;;;;;0.90;0.90;;;10.70;82.30;;;;;;5020640;28;20033;-79
2024/01/02 06:51:18;;;;;;;1.02;1.02;;;10.60;82.20;;;;;;5036380;28;20033;-79
2024/01/02 06:53:43;;;;;;;0.98;0.98;;;10.70;82.30;;;;;;5053901;28;20033;-79
2024/01/02 06:56:09;;;;;;;1.10;1.10;;;10.70;82.20;;;;;;5053971;28;20568;-80
2024/01/02 06:58:36;;;;;;;1.00;1.00;;;10.70;82.20;;;;;;5036434;28;20040;-79
2024/01/02 07:01:02;;;;;;;0.90;0.90;;;10.80;82.20;;;;;;5036482;28;20035;-79
2024/01/02 07:03:28;;;;;;;1.10;1.00;;;10.80;82.20;;;;;;5019670;28;20033;-79
2024/01/02 07:05:54;;;;;;;1.13;1.10;;;10.80;82.20;;;;;;5019197;28;20025;-79
2024/01/02 07:08:19;;;;;;;1.00;1.00;;;10.80;82.20;;;;;;5052468;28;20024;-80
2024/01/02 07:10:45;;;;;;;1.10;1.10;;;10.80;82.20;;;;;;5019512;28;20033;-79
2024/01/02 07:13:11;;;;;;;1.30;1.20;;;10.80;82.20;;;;;;5035917;28;20036;-79
2024/01/02 07:15:37;;;;;;;1.15;1.10;;;10.90;82.20;;;;;;5052312;28;20036;-79
2024/01/02 07:18:03;;;;;;;1.20;1.20;;;10.90;82.20;;;;;;5036413;28;20099;-80
2024/01/02 07:20:29;;;;;;;1.35;1.25;;;10.90;82.30;;;;;;5019385;28;20040;-79
2024/01/02 07:22:54;;;;;;;1.08;1.05;;;10.90;82.20;;;;;;5035546;28;20037;-80
2024/01/02 07:25:21;;;;;;;1.40;1.30;;;10.90;82.20;;;;;;5035769;28;20508;-79
2024/01/02 07:27:46;;;;;;;1.40;1.30;;;11.00;82.30;;;;;;5019063;28;20033;-80
2024/01/02 07:30:12;;;;;;;1.40;1.30;;;11.00;82.20;;;;;;5051938;28;20036;-80
2024/01/02 07:32:38;;;;;;;1.50;1.40;;;11.00;82.30;;;;;;5035902;28;20438;-80
2024/01/02 07:35:04;;;;;;;1.40;1.30;;;11.00;82.20;;;;;;5019130;28;20033;-79
2024/01/02 07:37:31;;;;;;;1.50;1.35;;;11.10;82.30;;;;;;5052160;28;20037;-78
2024/01/02 07:39:57;;;;;;;1.45;1.35;;;11.10;82.30;;;;;;5018962;28;20033;-79
2024/01/02 07:42:23;;;;;;;1.42;1.33;;;11.10;82.20;;;;;;5035412;28;20031;-80
2024/01/02 07:44:49;;;;;;;1.45;1.35;;;11.10;82.20;;;;;;5035451;28;20036;-78
2024/01/02 07:47:16;;;;;;;1.55;1.45;;;11.10;82.10;;;;;;5051787;28;20036;-80
2024/01/02 07:49:43;;;;;;;1.60;1.50;;;11.20;82.20;;;;;;5019035;28;20022;-78
2024/01/02 07:52:09;;;;;;;2.13;1.60;;;11.20;82.20;;;;;;5035426;28;20389;-79
2024/01/02 07:54:40;;;;;;;2.67;1.77;;;11.20;82.20;;;;;;5052304;28;20037;-79
2024/01/02 07:57:06;;;;;;;2.03;1.58;;;11.20;82.20;;;;;;5035401;28;20029;-80
2024/01/02 07:59:32;;;;;;;2.50;1.80;;;11.30;82.20;;;;;;5018822;28;20493;-79
2024/01/02 08:01:58;;;;;;;1.65;1.55;;;11.30;82.20;;;;;;5018514;28;20029;-80
2024/01/02 08:04:24;;;;;;;1.90;1.70;;;11.30;82.10;;;;;;5035218;28;20033;-79
2024/01/02 08:06:50;;;;;;;1.77;1.60;;;11.30;82.10;;;;;;5051243;28;20079;-80
2024/01/02 08:09:16;;;;;;;1.70;1.60;;;11.40;82.20;;;;;;5053111;28;20070;-78
2024/01/02 08:11:41;;;;;;;1.95;1.60;;;11.40;82.10;;;;;;5018163;28;20158;-80
2024/01/02 08:14:07;;;;;;;2.45;1.60;;;11.40;82.20;;;;;;5051396;28;20036;-79
2024/01/02 08:16:33;;;;;;;1.63;1.52;;;11.40;82.10;;;;;;5051204;28;20029;-81
2024/01/02 08:18:59;;;;;;;2.33;1.52;;;11.40;82.10;;;;;;5034583;28;20137;-80
2024/01/02 08:21:26;;;;;;;1.85;1.65;;;11.50;82.20;;;;;;5018174;28;20033;-79
2024/01/02 08:23:52;;;;;;;1.80;1.67;;;11.50;82.10;;;;;;5035081;28;20025;-81
2024/01/02 08:26:18;;;;;;;2.20;1.50;;;11.50;82.10;;;;;;5051485;28;20029;-80
2024/01/02 08:28:44;;;;;;;2.15;1.73;;;11.50;82.10;;;;;;5018019;28;20071;-77
2024/01/02 08:31:10;;;;;;;1.60;1.50;;;11.50;82.10;;;;;;5051495;28;20036;-79
2024/01/02 08:33:35;;;;;;;2.53;1.75;;;11.60;82.10;;;;;;5051434;28;20044;-79
2024/01/02 08:36:01;;;;;;;2.67;1.60;;;11.60;82.10;;;;;;5052122;28;20416;-78
2024/01/02 08:38:27;;;;;;;3.00;1.50;;;11.60;82.10;;;;;;5033877;28;20037;-78
2024/01/02 08:40:53;;;;;;;2.35;1.70;;;11.60;82.10;;;;;;5050807;28;20043;-78
2024/01/02 08:43:18;;;;;;;2.88;1.67;;;11.70;82.10;;;;;;5052410;28;20095;-77
2024/01/02 08:45:44;;;;;;;3.00;1.60;;;11.70;82.10;;;;;;5035978;28;20378;-79
2024/01/02 08:48:11;;;;;;;2.35;1.70;;;11.70;82.10;;;;;;5054602;28;20040;-78
2024/01/02 08:50:41;;;;;;;2.42;1.80;;;11.70;82.10;;;;;;5037754;28;20037;-78
2024/01/02 08:53:11;;;;;;;3.25;1.60;;;11.70;82.10;;;;;;5056105;28;20037;-79
2024/01/02 08:55:37;;;;;;;3.30;1.60;;;11.80;82.10;;;;;;5038251;28;20021;-78
2024/01/02 08:58:04;;;;;;;2.13;1.77;;;11.80;82.00;;;;;;5037728;28;20025;-79
2024/01/02 09:00:30;;;;;;;2.92;1.63;;;11.80;82.10;;;;;;5021968;28;20060;-79
2024/01/02 09:02:56;;;;;;;2.55;1.60;;;11.80;82.00;;;;;;5054373;28;20037;-79
2024/01/02 09:05:23;;;;;;;2.85;1.63;;;11.80;82.00;;;;;;5037922;28;20466;-79
2024/01/02 09:07:49;;;;;;;2.92;1.77;;;11.80;82.00;;;;;;5054615;28;20389;-80
2024/01/02 09:10:14;;;;;;;2.35;1.70;;;11.90;82.00;;;;;;5054430;28;20072;-79
2024/01/02 09:12:40;;;;;;;1.60;1.35;;;11.90;82.00;;;;;;5054131;28;20036;-79
2024/01/02 09:15:08;;;;;;;2.35;1.40;;;11.90;82.00;;;;;;5054174;28;20064;-80
2024/01/02 09:17:34;;;;;;;2.80;1.70;;;12.00;82.10;;;;;;5038899;28;20027;-79
2024/01/02 09:19:59;;;;;;;2.85;1.50;;;11.90;81.90;;;;;;5054147;28;20440;-78
2024/01/02 09:22:25;;;;;;;2.50;1.65;;;11.90;81.90;;;;;;5038455;28;20029;-79
2024/01/02 09:24:53;;;;;;;2.55;1.33;;;12.00;82.00;;;;;;5053772;28;20036;-80
2024/01/02 09:27:22;;;;;;;3.08;1.50;;;12.00;82.00;;;;;;5020756;28;20474;-78
2024/01/02 09:29:48;;;;;;;3.28;1.70;;;12.00;81.90;;;;;;5055673;28;20025;-79
2024/01/02 09:32:16;;;;;;;2.95;1.65;;;12.10;82.00;;;;;;5054081;28;20048;-79
2024/01/02 09:34:42;;;;;;;2.63;1.63;;;12.10;81.90;;;;;;5020896;28;20048;-79
2024/01/02 09:37:08;;;;;;;3.35;1.55;;;12.10;82.00;;;;;;5055117;28;20021;-79
2024/01/02 09:39:33;;;;;;;1.65;1.42;;;12.10;81.90;;;;;;5037488;28;20033;-80
2024/01/02 09:42:16;;;;;;;3.40;1.80;;;12.10;81.90;;;;;;5037609;28;20041;-80
2024/01/02 09:44:48;;;;;;;3.55;1.70;;;12.20;82.00;;;;;;5053982;28;20151;-78
2024/01/02 09:47:20;;;;;;;3.05;1.70;;;12.20;81.90;;;;;;5054733;28;20025;-79
2024/01/02 09:50:05;;;;;;;2.65;1.73;;;12.20;81.90;;;;;;5053833;28;20328;-82
2024/01/02 09:52:59;;;;;;;2.65;1.58;;;12.20;81.90;;;;;;5036899;28;20041;-79
2024/01/02 09:55:44;;;;;;;4.13;1.70;;;12.20;81.90;;;;;;5054350;28;20082;-80
2024/01/02 09:58:34;;;;;;;2.20;1.45;;;12.20;81.80;;;;;;5053811;28;20528;-78
2024/01/02 10:01:35;;;;;;;2.58;1.70;;;12.30;81.90;;;;;;5036964;28;20037;-80
2024/01/02 10:04:30;;;;;;;2.92;1.60;;;12.30;81.90;;;;;;5053842;28;20112;-79
2024/01/02 10:07:36;;;;;;;2.75;1.75;;;12.30;81.90;;;;;;5053345;28;20033;-79
2024/01/02 10:10:06;;;;;;;;;;;12.30;81.90;;;;;;5053480;28;20496;-80
2024/01/02 10:13:10;;;;;;;3.15;1.73;;;12.30;81.70;;;;;;5052662;28;20000;-79
2024/01/02 10:16:03;;;;;;;2.65;1.50;;;12.30;81.70;;;;;;5035221;28;20134;-80
2024/01/02 10:19:04;;;;;;;2.67;1.55;;;12.30;81.80;;;;;;5036812;28;20060;-79
2024/01/02 10:21:47;;;;;;;2.33;1.60;;;12.40;81.90;;;;;;5036199;28;20036;-79
2024/01/02 10:24:38;;;;;;;2.88;2.00;;;12.40;81.90;;;;;;5036667;28;20033;-75
2024/01/02 10:27:11;;;;;;;2.03;1.60;;;12.40;81.90;;;;;;5054523;28;20112;-79
2024/01/02 10:29:54;;;;;;;2.35;1.70;;;12.40;81.90;;;;;;5053189;28;20056;-79
2024/01/02 10:32:36;;;;;;;3.78;2.00;;;12.40;81.90;;;;;;5037189;28;20028;-78
2024/01/02 10:35:15;;;;;;;3.00;1.70;;;12.50;81.90;;;;;;5036574;28;20479;-78
2024/01/02 10:37:55;;;;;;;4.47;2.20;;;12.50;81.90;;;;;;5052667;28;20036;-79
2024/01/02 10:40:23;;;;;;;2.20;1.70;;;12.50;81.90;;;;;;5052841;28;20036;-78
2024/01/02 10:43:22;;;;;;;2.90;1.73;;;12.50;81.80;;;;;;5036050;28;20033;-79
2024/01/02 10:46:05;;;;;;;3.70;2.63;;;12.60;81.90;;;;;;5036786;28;20044;-85
2024/01/02 10:49:07;;;;;;;3.78;2.53;;;12.60;82.10;;;;;;5052569;28;20032;-79
2024/01/02 10:51:39;;;;;;;4.13;2.40;;;12.60;82.40;;;;;;5052776;28;20037;-79
2024/01/02 10:54:09;;;;;;;3.40;2.58;;;12.70;82.30;;;;;;5052720;28;20029;-79
2024/01/02 10:56:52;;;;;;;3.35;2.78;;;12.70;82.20;;;;;;5053013;28;20032;-78
2024/01/02 10:59:46;;;;;;;3.70;2.40;;;12.70;82.10;;;;;;5035385;28;20045;-79
2024/01/02 11:02:41;;;;;;;3.85;3.00;;;12.70;82.20;;;;;;5053000;28;20029;-79
2024/01/02 11:05:37;;;;;;;4.38;2.45;;;12.70;82.10;;;;;;5051920;28;20025;-79
2024/01/02 11:08:29;;;;;;;3.78;2.42;;;12.70;82.10;;;;;;5052369;28;20033;-77
2024/01/02 11:11:05;;;;;;;4.10;2.90;;;12.80;82.10;;;;;;5035407;28;20474;-80
2024/01/02 11:13:36;;;;;;;3.58;2.67;;;12.80;82.10;;;;;;5035734;28;20405;-80
2024/01/02 11:16:23;;;;;;;2.92;2.17;;;12.80;82.00;;;;;;5035342;28;20029;-80
2024/01/02 11:18:56;;;;;;;3.00;2.25;;;12.80;82.10;;;;;;5035406;28;20040;-79
2024/01/02 11:21:30;;;;;;;3.42;2.40;;;12.90;82.00;;;;;;5035184;28;20029;-78
2024/01/02 11:23:59;;;;;;;3.40;2.47;;;12.80;82.00;;;;;;5052704;28;20029;-80
2024/01/02 11:26:29;;;;;;;4.80;2.20;;;12.90;82.00;;;;;;5019260;28;20044;-80
2024/01/02 11:28:59;;;;;;;3.63;2.60;;;12.90;82.00;;;;;;5035960;28;20029;-79
2024/01/02 11:31:26;;;;;;;2.88;2.38;;;12.90;82.00;;;;;;5051920;28;20047;-80
2024/01/02 11:34:14;;;;;;;2.85;2.20;;;12.90;81.90;;;;;;5051725;28;20057;-81
2024/01/02 11:37:01;;;;;;;3.28;2.17;;;13.00;82.00;;;;;;5052631;28;20036;-79
2024/01/02 11:39:39;;;;;;;2.35;2.00;;;13.00;81.90;;;;;;5052250;28;20110;-84
2024/01/02 11:42:04;;;;;;;2.65;2.15;;;13.00;81.90;;;;;;5051429;28;20041;-82
2024/01/02 11:44:46;;;;;;;2.08;1.85;;;13.00;81.90;;;;;;5035151;28;20132;-79
2024/01/02 11:47:45;;;;;;;2.25;1.90;;;13.00;81.90;;;;;;5035706;28;20393;-79
2024/01/02 11:50:17;;;;;;;2.22;1.90;;;13.00;81.90;;;;;;5051065;28;20053;-79
2024/01/02 11:53:02;;;;;;;2.33;1.90;;;13.00;81.80;;;;;;5053283;28;20115;-79
2024/01/02 11:55:51;;;;;;;2.10;1.88;;;13.00;81.80;;;;;;5034941;28;20036;-83
2024/01/02 11:58:25;;;;;;;2.42;1.98;;;13.00;81.80;;;;;;5046414;28;20108;-81
2024/01/02 12:00:57;;;;;;;2.35;1.77;;;13.10;81.80;;;;;;5052279;28;20076;-82
2024/01/02 12:03:40;;;;;;;2.20;1.90;;;13.10;81.80;;;;;;5052902;28;20025;-79
2024/01/02 12:06:21;;;;;;;1.60;1.45;;;13.10;82.50;;;;;;5051403;28;20028;-80
2024/01/02 12:08:52;;;;;;;1.55;1.45;;;13.10;81.90;;;;;;5035356;28;20124;-82
2024/01/02 12:11:19;;;;;;;1.65;1.55;;;13.10;81.80;;;;;;5034849;28;20036;-80
2024/01/02 12:14:42;;;;;;;1.60;1.50;;;13.10;81.80;;;;;;5035192;28;20029;-80
2024/01/02 12:17:12;;;;;;;1.40;1.30;;;13.10;81.90;;;;;;4997290;28;20075;-79
2024/01/02 12:19:40;;;;;;;1.77;1.45;;;13.20;81.70;;;;;;5014749;28;20075;-80
2024/01/02 12:22:07;;;;;;;1.50;1.40;;;13.10;81.70;;;;;;5024206;28;20041;-78
2024/01/02 12:24:34;;;;;;;1.70;1.60;;;13.20;81.80;;;;;;5022401;28;20058;-80
2024/01/02 12:27:03;;;;;;;1.50;1.40;;;13.20;81.80;;;;;;5054597;28;20032;-78
2024/01/02 12:30:04;;;;;;;1.30;1.20;;;13.20;81.80;;;;;;5055654;28;20029;-80
2024/01/02 12:32:42;;;;;;;1.30;1.20;;;13.20;81.80;;;;;;5036924;28;20037;-81
2024/01/02 12:35:29;;;;;;;1.38;1.27;;;13.20;81.70;;;;;;5055826;28;20021;-83
2024/01/02 12:38:13;;;;;;;1.20;1.10;;;13.20;81.80;;;;;;5038513;28;20025;-82
2024/01/02 12:40:44;;;;;;;1.20;1.15;;;13.20;81.70;;;;;;5038790;28;20029;-80
2024/01/02 12:43:16;;;;;;;1.30;1.10;;;13.30;81.80;;;;;;5056360;28;20053;-80
2024/01/02 12:45:46;;;;;;;1.20;1.10;;;13.20;81.70;;;;;;5056565;28;20033;-80
2024/01/02 12:48:21;;;;;;;1.35;1.25;;;13.30;81.80;;;;;;5054855;28;20055;-80
2024/01/02 12:50:50;;;;;;;1.20;1.10;;;13.30;81.80;;;;;;5055937;28;20469;-79
2024/01/02 12:53:17;;;;;;;1.30;1.20;;;13.30;81.70;;;;;;5054874;28;20044;-79
2024/01/02 12:55:51;;;;;;;1.20;1.10;;;13.30;81.70;;;;;;5054692;28;20546;-81
2024/01/02 12:58:19;;;;;;;1.30;1.20;;;13.30;81.70;;;;;;5055278;28;20060;-79
2024/01/02 13:00:46;;;;;;;1.13;1.10;;;13.30;81.70;;;;;;5054896;28;20374;-79
2024/01/02 13:03:16;;;;;;;1.30;1.20;;;13.30;81.70;;;;;;5038071;28;20033;-78